Subiaco, Arkansas
Current Conditions -  °F | °C
As of 7:53 AM on Saturday 22 Nov 2014 (Local Time) from KRUE Reporting Station
Overcast Overcast  
Wind Chill: 53°   Ceiling: 2600
Heat Index: 53°   Visibility: 10mi
Dew Point: 49°   Wind: 3mph
Humidity: 86%   Direction: 160°SSE
Pressure: 30.16"   Gusts: NA
Location:  35.29°N, 93.63°W
Report Text: KRUE 221353Z AUTO 16003KT 10SM OVC026 12/09 A3016 RMK AO2 SLP210 T01170094
Loading
Personal Weather Stations






























Interactive Weather Map New forecast layout! Learn more

10-Day Weather Forecast

Advertisements
Track Severe Weather on mobile